<?xml version="1.0" encoding="UTF-8" standalone="no" ?>
<gpx xmlns="http://www.topografix.com/GPX/1/1" xmlns:xsi="http://www.w3.org/2001/XMLSchema-instance" xsi:schemaLocation="http://www.topografix.com/GPX/1/1 http://www.topografix.com/GPX/1/1/gpx.xsd" version="1.1" creator="VisuGPX - https://www.visugpx.com">
  <metadata>
    <name>Froidmont-Mont César</name>
  </metadata>
  <trk>
    <name><![CDATA[15133298-Froidmont-Mont César]]></name>
    <extensions>
      <line xmlns="http://www.topografix.com/GPX/gpx_style/0/2">
        <color>0000FF</color>
        <width>4</width>
      </line>
    </extensions>
    <trkseg>
      <trkpt lat="49.37873" lon="2.26866">
        <ele>85</ele>
        <time>2022-07-13T15:10:11Z</time>
      </trkpt>
      <trkpt lat="49.37875" lon="2.2683">
        <ele>82</ele>
        <time>2022-07-13T15:10:42Z</time>
      </trkpt>
      <trkpt lat="49.37881" lon="2.26784">
        <ele>81</ele>
        <time>2022-07-13T15:11:23Z</time>
      </trkpt>
      <trkpt lat="49.37892" lon="2.26667">
        <ele>77</ele>
        <time>2022-07-13T15:13:06Z</time>
      </trkpt>
      <trkpt lat="49.37892" lon="2.26646">
        <ele>76</ele>
        <time>2022-07-13T15:13:24Z</time>
      </trkpt>
      <trkpt lat="49.37888" lon="2.2662">
        <ele>75</ele>
        <time>2022-07-13T15:13:47Z</time>
      </trkpt>
      <trkpt lat="49.3788" lon="2.26585">
        <ele>74</ele>
        <time>2022-07-13T15:14:20Z</time>
      </trkpt>
      <trkpt lat="49.37871" lon="2.26557">
        <ele>72</ele>
        <time>2022-07-13T15:14:47Z</time>
      </trkpt>
      <trkpt lat="49.37863" lon="2.26538">
        <ele>72</ele>
        <time>2022-07-13T15:15:06Z</time>
      </trkpt>
      <trkpt lat="49.3784" lon="2.26508">
        <ele>71</ele>
        <time>2022-07-13T15:15:47Z</time>
      </trkpt>
      <trkpt lat="49.37768" lon="2.26418">
        <ele>67</ele>
        <time>2022-07-13T15:17:50Z</time>
      </trkpt>
      <trkpt lat="49.37758" lon="2.264">
        <ele>66</ele>
        <time>2022-07-13T15:18:11Z</time>
      </trkpt>
      <trkpt lat="49.37754" lon="2.26383">
        <ele>65</ele>
        <time>2022-07-13T15:18:27Z</time>
      </trkpt>
      <trkpt lat="49.37744" lon="2.26307">
        <ele>62</ele>
        <time>2022-07-13T15:19:34Z</time>
      </trkpt>
      <trkpt lat="49.37741" lon="2.26279">
        <ele>62</ele>
        <time>2022-07-13T15:19:59Z</time>
      </trkpt>
      <trkpt lat="49.37886" lon="2.26176">
        <ele>56</ele>
        <time>2022-07-13T15:23:32Z</time>
      </trkpt>
      <trkpt lat="49.3789" lon="2.26164">
        <ele>56</ele>
        <time>2022-07-13T15:23:44Z</time>
      </trkpt>
      <trkpt lat="49.37888" lon="2.26133">
        <ele>56</ele>
        <time>2022-07-13T15:24:11Z</time>
      </trkpt>
      <trkpt lat="49.37875" lon="2.26016">
        <ele>52</ele>
        <time>2022-07-13T15:25:54Z</time>
      </trkpt>
      <trkpt lat="49.37895" lon="2.25942">
        <ele>50</ele>
        <time>2022-07-13T15:27:03Z</time>
      </trkpt>
      <trkpt lat="49.37945" lon="2.2581">
        <ele>50</ele>
        <time>2022-07-13T15:29:16Z</time>
      </trkpt>
      <trkpt lat="49.37953" lon="2.25775">
        <ele>51</ele>
        <time>2022-07-13T15:29:48Z</time>
      </trkpt>
      <trkpt lat="49.37957" lon="2.2576">
        <ele>51</ele>
        <time>2022-07-13T15:30:02Z</time>
      </trkpt>
      <trkpt lat="49.38011" lon="2.2552">
        <ele>53</ele>
        <time>2022-07-13T15:33:43Z</time>
      </trkpt>
      <trkpt lat="49.38026" lon="2.25467">
        <ele>52</ele>
        <time>2022-07-13T15:34:33Z</time>
      </trkpt>
      <trkpt lat="49.38084" lon="2.25336">
        <ele>52</ele>
        <time>2022-07-13T15:36:51Z</time>
      </trkpt>
      <trkpt lat="49.38183" lon="2.25123">
        <ele>57</ele>
        <time>2022-07-13T15:40:38Z</time>
      </trkpt>
      <trkpt lat="49.38215" lon="2.25041">
        <ele>59</ele>
        <time>2022-07-13T15:42:01Z</time>
      </trkpt>
      <trkpt lat="49.38229" lon="2.24993">
        <ele>60</ele>
        <time>2022-07-13T15:42:47Z</time>
      </trkpt>
      <trkpt lat="49.38246" lon="2.24949">
        <ele>60</ele>
        <time>2022-07-13T15:43:31Z</time>
      </trkpt>
      <trkpt lat="49.38268" lon="2.24916">
        <ele>60</ele>
        <time>2022-07-13T15:44:13Z</time>
      </trkpt>
      <trkpt lat="49.38343" lon="2.24865">
        <ele>62</ele>
        <time>2022-07-13T15:46:02Z</time>
      </trkpt>
      <trkpt lat="49.38338" lon="2.24848">
        <ele>62</ele>
        <time>2022-07-13T15:46:18Z</time>
      </trkpt>
      <trkpt lat="49.3831" lon="2.24782">
        <ele>63</ele>
        <time>2022-07-13T15:47:27Z</time>
      </trkpt>
      <trkpt lat="49.38295" lon="2.2471">
        <ele>64</ele>
        <time>2022-07-13T15:48:32Z</time>
      </trkpt>
      <trkpt lat="49.38289" lon="2.24674">
        <ele>64</ele>
        <time>2022-07-13T15:49:05Z</time>
      </trkpt>
      <trkpt lat="49.38288" lon="2.2464">
        <ele>65</ele>
        <time>2022-07-13T15:49:34Z</time>
      </trkpt>
      <trkpt lat="49.3829" lon="2.24603">
        <ele>65</ele>
        <time>2022-07-13T15:50:06Z</time>
      </trkpt>
      <trkpt lat="49.38289" lon="2.24573">
        <ele>66</ele>
        <time>2022-07-13T15:50:32Z</time>
      </trkpt>
      <trkpt lat="49.38279" lon="2.24564">
        <ele>65</ele>
        <time>2022-07-13T15:50:48Z</time>
      </trkpt>
      <trkpt lat="49.38293" lon="2.24374">
        <ele>71</ele>
        <time>2022-07-13T15:53:34Z</time>
      </trkpt>
      <trkpt lat="49.38291" lon="2.24346">
        <ele>72</ele>
        <time>2022-07-13T15:53:59Z</time>
      </trkpt>
      <trkpt lat="49.3829" lon="2.24332">
        <ele>72</ele>
        <time>2022-07-13T15:54:11Z</time>
      </trkpt>
      <trkpt lat="49.38335" lon="2.2433">
        <ele>75</ele>
        <time>2022-07-13T15:55:11Z</time>
      </trkpt>
      <trkpt lat="49.38357" lon="2.24327">
        <ele>77</ele>
        <time>2022-07-13T15:55:40Z</time>
      </trkpt>
      <trkpt lat="49.38375" lon="2.24312">
        <ele>79</ele>
        <time>2022-07-13T15:56:08Z</time>
      </trkpt>
      <trkpt lat="49.38403" lon="2.24284">
        <ele>82</ele>
        <time>2022-07-13T15:56:52Z</time>
      </trkpt>
      <trkpt lat="49.38465" lon="2.24242">
        <ele>90</ele>
        <time>2022-07-13T15:58:23Z</time>
      </trkpt>
      <trkpt lat="49.38604" lon="2.24141">
        <ele>119</ele>
        <time>2022-07-13T16:01:48Z</time>
      </trkpt>
      <trkpt lat="49.38622" lon="2.24132">
        <ele>122</ele>
        <time>2022-07-13T16:02:13Z</time>
      </trkpt>
      <trkpt lat="49.38641" lon="2.2413">
        <ele>126</ele>
        <time>2022-07-13T16:02:39Z</time>
      </trkpt>
      <trkpt lat="49.38652" lon="2.24126">
        <ele>128</ele>
        <time>2022-07-13T16:02:54Z</time>
      </trkpt>
      <trkpt lat="49.38655" lon="2.24118">
        <ele>129</ele>
        <time>2022-07-13T16:03:02Z</time>
      </trkpt>
      <trkpt lat="49.38657" lon="2.24106">
        <ele>130</ele>
        <time>2022-07-13T16:03:12Z</time>
      </trkpt>
      <trkpt lat="49.38665" lon="2.24101">
        <ele>131</ele>
        <time>2022-07-13T16:03:24Z</time>
      </trkpt>
      <trkpt lat="49.38678" lon="2.24104">
        <ele>132</ele>
        <time>2022-07-13T16:03:41Z</time>
      </trkpt>
      <trkpt lat="49.38669" lon="2.24033">
        <ele>133</ele>
        <time>2022-07-13T16:04:44Z</time>
      </trkpt>
      <trkpt lat="49.38658" lon="2.23989">
        <ele>133</ele>
        <time>2022-07-13T16:05:25Z</time>
      </trkpt>
      <trkpt lat="49.38632" lon="2.23909">
        <ele>131</ele>
        <time>2022-07-13T16:06:43Z</time>
      </trkpt>
      <trkpt lat="49.38618" lon="2.2386">
        <ele>129</ele>
        <time>2022-07-13T16:07:29Z</time>
      </trkpt>
      <trkpt lat="49.38613" lon="2.23825">
        <ele>129</ele>
        <time>2022-07-13T16:08:01Z</time>
      </trkpt>
      <trkpt lat="49.38613" lon="2.23806">
        <ele>129</ele>
        <time>2022-07-13T16:08:17Z</time>
      </trkpt>
      <trkpt lat="49.3868" lon="2.23732">
        <ele>133</ele>
        <time>2022-07-13T16:10:07Z</time>
      </trkpt>
      <trkpt lat="49.38691" lon="2.23709">
        <ele>133</ele>
        <time>2022-07-13T16:10:32Z</time>
      </trkpt>
      <trkpt lat="49.38705" lon="2.23685">
        <ele>132</ele>
        <time>2022-07-13T16:11:00Z</time>
      </trkpt>
      <trkpt lat="49.38715" lon="2.23637">
        <ele>132</ele>
        <time>2022-07-13T16:11:44Z</time>
      </trkpt>
      <trkpt lat="49.38712" lon="2.236">
        <ele>132</ele>
        <time>2022-07-13T16:12:16Z</time>
      </trkpt>
      <trkpt lat="49.38716" lon="2.23586">
        <ele>132</ele>
        <time>2022-07-13T16:12:29Z</time>
      </trkpt>
      <trkpt lat="49.38724" lon="2.23579">
        <ele>132</ele>
        <time>2022-07-13T16:12:42Z</time>
      </trkpt>
      <trkpt lat="49.38731" lon="2.23576">
        <ele>131</ele>
        <time>2022-07-13T16:12:51Z</time>
      </trkpt>
      <trkpt lat="49.38742" lon="2.23578">
        <ele>131</ele>
        <time>2022-07-13T16:13:06Z</time>
      </trkpt>
      <trkpt lat="49.38751" lon="2.23571">
        <ele>131</ele>
        <time>2022-07-13T16:13:20Z</time>
      </trkpt>
      <trkpt lat="49.38757" lon="2.2356">
        <ele>130</ele>
        <time>2022-07-13T16:13:32Z</time>
      </trkpt>
      <trkpt lat="49.38761" lon="2.23507">
        <ele>129</ele>
        <time>2022-07-13T16:14:18Z</time>
      </trkpt>
      <trkpt lat="49.38766" lon="2.2349">
        <ele>127</ele>
        <time>2022-07-13T16:14:35Z</time>
      </trkpt>
      <trkpt lat="49.38775" lon="2.23474">
        <ele>125</ele>
        <time>2022-07-13T16:14:53Z</time>
      </trkpt>
      <trkpt lat="49.3875" lon="2.23456">
        <ele>124</ele>
        <time>2022-07-13T16:15:30Z</time>
      </trkpt>
      <trkpt lat="49.38717" lon="2.23435">
        <ele>122</ele>
        <time>2022-07-13T16:16:17Z</time>
      </trkpt>
      <trkpt lat="49.38691" lon="2.23409">
        <ele>119</ele>
        <time>2022-07-13T16:16:59Z</time>
      </trkpt>
      <trkpt lat="49.3868" lon="2.23394">
        <ele>118</ele>
        <time>2022-07-13T16:17:19Z</time>
      </trkpt>
      <trkpt lat="49.38671" lon="2.23374">
        <ele>116</ele>
        <time>2022-07-13T16:17:40Z</time>
      </trkpt>
      <trkpt lat="49.38665" lon="2.23356">
        <ele>114</ele>
        <time>2022-07-13T16:17:57Z</time>
      </trkpt>
      <trkpt lat="49.38658" lon="2.23344">
        <ele>112</ele>
        <time>2022-07-13T16:18:11Z</time>
      </trkpt>
      <trkpt lat="49.38621" lon="2.23318">
        <ele>106</ele>
        <time>2022-07-13T16:19:06Z</time>
      </trkpt>
      <trkpt lat="49.38609" lon="2.23314">
        <ele>105</ele>
        <time>2022-07-13T16:19:22Z</time>
      </trkpt>
      <trkpt lat="49.38589" lon="2.23309">
        <ele>103</ele>
        <time>2022-07-13T16:19:49Z</time>
      </trkpt>
      <trkpt lat="49.38546" lon="2.23315">
        <ele>98</ele>
        <time>2022-07-13T16:20:47Z</time>
      </trkpt>
      <trkpt lat="49.38544" lon="2.23308">
        <ele>97</ele>
        <time>2022-07-13T16:20:53Z</time>
      </trkpt>
      <trkpt lat="49.38541" lon="2.23294">
        <ele>95</ele>
        <time>2022-07-13T16:21:06Z</time>
      </trkpt>
      <trkpt lat="49.38549" lon="2.23225">
        <ele>90</ele>
        <time>2022-07-13T16:22:07Z</time>
      </trkpt>
      <trkpt lat="49.38541" lon="2.23187">
        <ele>86</ele>
        <time>2022-07-13T16:22:42Z</time>
      </trkpt>
      <trkpt lat="49.38534" lon="2.23165">
        <ele>83</ele>
        <time>2022-07-13T16:23:03Z</time>
      </trkpt>
      <trkpt lat="49.38498" lon="2.23094">
        <ele>76</ele>
        <time>2022-07-13T16:24:21Z</time>
      </trkpt>
      <trkpt lat="49.38401" lon="2.22974">
        <ele>63</ele>
        <time>2022-07-13T16:27:07Z</time>
      </trkpt>
      <trkpt lat="49.38422" lon="2.22914">
        <ele>60</ele>
        <time>2022-07-13T16:28:06Z</time>
      </trkpt>
      <trkpt lat="49.38446" lon="2.22846">
        <ele>58</ele>
        <time>2022-07-13T16:29:14Z</time>
      </trkpt>
      <trkpt lat="49.38447" lon="2.22843">
        <ele>57</ele>
        <time>2022-07-13T16:29:17Z</time>
      </trkpt>
      <trkpt lat="49.38474" lon="2.22854">
        <ele>58</ele>
        <time>2022-07-13T16:29:54Z</time>
      </trkpt>
      <trkpt lat="49.38505" lon="2.22856">
        <ele>58</ele>
        <time>2022-07-13T16:30:35Z</time>
      </trkpt>
      <trkpt lat="49.38565" lon="2.22856">
        <ele>59</ele>
        <time>2022-07-13T16:31:55Z</time>
      </trkpt>
      <trkpt lat="49.38608" lon="2.22863">
        <ele>59</ele>
        <time>2022-07-13T16:32:53Z</time>
      </trkpt>
      <trkpt lat="49.38716" lon="2.22875">
        <ele>58</ele>
        <time>2022-07-13T16:35:17Z</time>
      </trkpt>
      <trkpt lat="49.38769" lon="2.22872">
        <ele>58</ele>
        <time>2022-07-13T16:36:28Z</time>
      </trkpt>
      <trkpt lat="49.38816" lon="2.22878">
        <ele>60</ele>
        <time>2022-07-13T16:37:31Z</time>
      </trkpt>
      <trkpt lat="49.38851" lon="2.22896">
        <ele>62</ele>
        <time>2022-07-13T16:38:20Z</time>
      </trkpt>
      <trkpt lat="49.38871" lon="2.22915">
        <ele>63</ele>
        <time>2022-07-13T16:38:52Z</time>
      </trkpt>
      <trkpt lat="49.38885" lon="2.22932">
        <ele>64</ele>
        <time>2022-07-13T16:39:16Z</time>
      </trkpt>
      <trkpt lat="49.38896" lon="2.22949">
        <ele>65</ele>
        <time>2022-07-13T16:39:36Z</time>
      </trkpt>
      <trkpt lat="49.38907" lon="2.22961">
        <ele>65</ele>
        <time>2022-07-13T16:39:54Z</time>
      </trkpt>
      <trkpt lat="49.38921" lon="2.22969">
        <ele>65</ele>
        <time>2022-07-13T16:40:14Z</time>
      </trkpt>
      <trkpt lat="49.38965" lon="2.23004">
        <ele>62</ele>
        <time>2022-07-13T16:41:21Z</time>
      </trkpt>
      <trkpt lat="49.39069" lon="2.23065">
        <ele>55</ele>
        <time>2022-07-13T16:43:49Z</time>
      </trkpt>
      <trkpt lat="49.39076" lon="2.23074">
        <ele>55</ele>
        <time>2022-07-13T16:44:01Z</time>
      </trkpt>
      <trkpt lat="49.39156" lon="2.23345">
        <ele>56</ele>
        <time>2022-07-13T16:48:20Z</time>
      </trkpt>
      <trkpt lat="49.39231" lon="2.2367">
        <ele>54</ele>
        <time>2022-07-13T16:53:19Z</time>
      </trkpt>
      <trkpt lat="49.39236" lon="2.23688">
        <ele>54</ele>
        <time>2022-07-13T16:53:36Z</time>
      </trkpt>
      <trkpt lat="49.39243" lon="2.23707">
        <ele>53</ele>
        <time>2022-07-13T16:53:55Z</time>
      </trkpt>
      <trkpt lat="49.39306" lon="2.23839">
        <ele>51</ele>
        <time>2022-07-13T16:56:17Z</time>
      </trkpt>
      <trkpt lat="49.39428" lon="2.2384">
        <ele>53</ele>
        <time>2022-07-13T16:59:00Z</time>
      </trkpt>
      <trkpt lat="49.39436" lon="2.23849">
        <ele>54</ele>
        <time>2022-07-13T16:59:13Z</time>
      </trkpt>
      <trkpt lat="49.39445" lon="2.2387">
        <ele>54</ele>
        <time>2022-07-13T16:59:35Z</time>
      </trkpt>
      <trkpt lat="49.3945" lon="2.23911">
        <ele>56</ele>
        <time>2022-07-13T17:00:11Z</time>
      </trkpt>
      <trkpt lat="49.39457" lon="2.23946">
        <ele>56</ele>
        <time>2022-07-13T17:00:43Z</time>
      </trkpt>
      <trkpt lat="49.39532" lon="2.24016">
        <ele>55</ele>
        <time>2022-07-13T17:02:40Z</time>
      </trkpt>
      <trkpt lat="49.39641" lon="2.23669">
        <ele>55</ele>
        <time>2022-07-13T17:08:15Z</time>
      </trkpt>
      <trkpt lat="49.39688" lon="2.23649">
        <ele>56</ele>
        <time>2022-07-13T17:09:20Z</time>
      </trkpt>
      <trkpt lat="49.39988" lon="2.23478">
        <ele>55</ele>
        <time>2022-07-13T17:16:27Z</time>
      </trkpt>
      <trkpt lat="49.40246" lon="2.23652">
        <ele>51</ele>
        <time>2022-07-13T17:22:43Z</time>
      </trkpt>
      <trkpt lat="49.4025" lon="2.23635">
        <ele>51</ele>
        <time>2022-07-13T17:22:59Z</time>
      </trkpt>
      <trkpt lat="49.40246" lon="2.23652">
        <ele>51</ele>
        <time>2022-07-13T17:23:14Z</time>
      </trkpt>
      <trkpt lat="49.40235" lon="2.2367">
        <ele>51</ele>
        <time>2022-07-13T17:23:36Z</time>
      </trkpt>
      <trkpt lat="49.40183" lon="2.23834">
        <ele>52</ele>
        <time>2022-07-13T17:26:14Z</time>
      </trkpt>
      <trkpt lat="49.40028" lon="2.2437">
        <ele>51</ele>
        <time>2022-07-13T17:34:44Z</time>
      </trkpt>
      <trkpt lat="49.39948" lon="2.24631">
        <ele>51</ele>
        <time>2022-07-13T17:38:54Z</time>
      </trkpt>
      <trkpt lat="49.39923" lon="2.24728">
        <ele>52</ele>
        <time>2022-07-13T17:40:25Z</time>
      </trkpt>
      <trkpt lat="49.39887" lon="2.2485">
        <ele>53</ele>
        <time>2022-07-13T17:42:21Z</time>
      </trkpt>
      <trkpt lat="49.39852" lon="2.24974">
        <ele>53</ele>
        <time>2022-07-13T17:44:19Z</time>
      </trkpt>
      <trkpt lat="49.39832" lon="2.25142">
        <ele>49</ele>
        <time>2022-07-13T17:46:47Z</time>
      </trkpt>
      <trkpt lat="49.39828" lon="2.25195">
        <ele>49</ele>
        <time>2022-07-13T17:47:33Z</time>
      </trkpt>
      <trkpt lat="49.39842" lon="2.252">
        <ele>50</ele>
        <time>2022-07-13T17:47:52Z</time>
      </trkpt>
      <trkpt lat="49.39824" lon="2.25287">
        <ele>50</ele>
        <time>2022-07-13T17:49:12Z</time>
      </trkpt>
      <trkpt lat="49.39825" lon="2.25369">
        <ele>49</ele>
        <time>2022-07-13T17:50:23Z</time>
      </trkpt>
      <trkpt lat="49.3987" lon="2.25696">
        <ele>51</ele>
        <time>2022-07-13T17:55:13Z</time>
      </trkpt>
      <trkpt lat="49.39893" lon="2.25838">
        <ele>52</ele>
        <time>2022-07-13T17:57:20Z</time>
      </trkpt>
      <trkpt lat="49.3995" lon="2.26043">
        <ele>49</ele>
        <time>2022-07-13T18:00:34Z</time>
      </trkpt>
      <trkpt lat="49.39949" lon="2.26052">
        <ele>49</ele>
        <time>2022-07-13T18:00:42Z</time>
      </trkpt>
      <trkpt lat="49.39932" lon="2.26075">
        <ele>49</ele>
        <time>2022-07-13T18:01:12Z</time>
      </trkpt>
      <trkpt lat="49.39909" lon="2.26092">
        <ele>49</ele>
        <time>2022-07-13T18:01:46Z</time>
      </trkpt>
      <trkpt lat="49.39894" lon="2.26096">
        <ele>49</ele>
        <time>2022-07-13T18:02:06Z</time>
      </trkpt>
      <trkpt lat="49.39891" lon="2.26105">
        <ele>49</ele>
        <time>2022-07-13T18:02:15Z</time>
      </trkpt>
      <trkpt lat="49.39894" lon="2.26112">
        <ele>49</ele>
        <time>2022-07-13T18:02:22Z</time>
      </trkpt>
      <trkpt lat="49.39903" lon="2.26137">
        <ele>49</ele>
        <time>2022-07-13T18:02:47Z</time>
      </trkpt>
      <trkpt lat="49.39956" lon="2.26261">
        <ele>50</ele>
        <time>2022-07-13T18:04:56Z</time>
      </trkpt>
      <trkpt lat="49.39998" lon="2.26356">
        <ele>54</ele>
        <time>2022-07-13T18:06:36Z</time>
      </trkpt>
      <trkpt lat="49.40009" lon="2.26398">
        <ele>56</ele>
        <time>2022-07-13T18:07:15Z</time>
      </trkpt>
      <trkpt lat="49.39998" lon="2.26356">
        <ele>54</ele>
        <time>2022-07-13T18:07:54Z</time>
      </trkpt>
      <trkpt lat="49.39956" lon="2.26261">
        <ele>50</ele>
        <time>2022-07-13T18:09:34Z</time>
      </trkpt>
      <trkpt lat="49.39903" lon="2.26137">
        <ele>49</ele>
        <time>2022-07-13T18:11:43Z</time>
      </trkpt>
      <trkpt lat="49.39894" lon="2.26112">
        <ele>49</ele>
        <time>2022-07-13T18:12:08Z</time>
      </trkpt>
      <trkpt lat="49.39891" lon="2.26105">
        <ele>49</ele>
        <time>2022-07-13T18:12:15Z</time>
      </trkpt>
      <trkpt lat="49.39841" lon="2.26154">
        <ele>48</ele>
        <time>2022-07-13T18:13:34Z</time>
      </trkpt>
      <trkpt lat="49.39775" lon="2.2622">
        <ele>48</ele>
        <time>2022-07-13T18:15:19Z</time>
      </trkpt>
      <trkpt lat="49.39765" lon="2.26235">
        <ele>47</ele>
        <time>2022-07-13T18:15:38Z</time>
      </trkpt>
      <trkpt lat="49.39757" lon="2.26245">
        <ele>47</ele>
        <time>2022-07-13T18:15:52Z</time>
      </trkpt>
      <trkpt lat="49.39741" lon="2.26255">
        <ele>47</ele>
        <time>2022-07-13T18:16:15Z</time>
      </trkpt>
      <trkpt lat="49.39728" lon="2.26256">
        <ele>47</ele>
        <time>2022-07-13T18:16:32Z</time>
      </trkpt>
      <trkpt lat="49.39715" lon="2.26255">
        <ele>47</ele>
        <time>2022-07-13T18:16:50Z</time>
      </trkpt>
      <trkpt lat="49.39707" lon="2.26258">
        <ele>47</ele>
        <time>2022-07-13T18:17:01Z</time>
      </trkpt>
      <trkpt lat="49.39699" lon="2.26275">
        <ele>48</ele>
        <time>2022-07-13T18:17:19Z</time>
      </trkpt>
      <trkpt lat="49.39687" lon="2.26277">
        <ele>48</ele>
        <time>2022-07-13T18:17:35Z</time>
      </trkpt>
      <trkpt lat="49.39679" lon="2.26287">
        <ele>48</ele>
        <time>2022-07-13T18:17:49Z</time>
      </trkpt>
      <trkpt lat="49.39661" lon="2.26284">
        <ele>48</ele>
        <time>2022-07-13T18:18:13Z</time>
      </trkpt>
      <trkpt lat="49.39654" lon="2.26292">
        <ele>48</ele>
        <time>2022-07-13T18:18:24Z</time>
      </trkpt>
      <trkpt lat="49.39634" lon="2.26298">
        <ele>48</ele>
        <time>2022-07-13T18:18:52Z</time>
      </trkpt>
      <trkpt lat="49.39628" lon="2.26305">
        <ele>48</ele>
        <time>2022-07-13T18:19:02Z</time>
      </trkpt>
      <trkpt lat="49.39614" lon="2.26337">
        <ele>48</ele>
        <time>2022-07-13T18:19:35Z</time>
      </trkpt>
      <trkpt lat="49.39598" lon="2.26355">
        <ele>49</ele>
        <time>2022-07-13T18:20:02Z</time>
      </trkpt>
      <trkpt lat="49.39594" lon="2.26365">
        <ele>49</ele>
        <time>2022-07-13T18:20:12Z</time>
      </trkpt>
      <trkpt lat="49.39588" lon="2.26397">
        <ele>50</ele>
        <time>2022-07-13T18:20:41Z</time>
      </trkpt>
      <trkpt lat="49.3958" lon="2.26411">
        <ele>50</ele>
        <time>2022-07-13T18:20:57Z</time>
      </trkpt>
      <trkpt lat="49.3957" lon="2.26419">
        <ele>50</ele>
        <time>2022-07-13T18:21:12Z</time>
      </trkpt>
      <trkpt lat="49.39564" lon="2.26418">
        <ele>50</ele>
        <time>2022-07-13T18:21:20Z</time>
      </trkpt>
      <trkpt lat="49.39559" lon="2.2642">
        <ele>50</ele>
        <time>2022-07-13T18:21:27Z</time>
      </trkpt>
      <trkpt lat="49.39532" lon="2.2646">
        <ele>51</ele>
        <time>2022-07-13T18:22:17Z</time>
      </trkpt>
      <trkpt lat="49.39514" lon="2.26466">
        <ele>50</ele>
        <time>2022-07-13T18:22:42Z</time>
      </trkpt>
      <trkpt lat="49.39503" lon="2.26491">
        <ele>51</ele>
        <time>2022-07-13T18:23:08Z</time>
      </trkpt>
      <trkpt lat="49.39495" lon="2.26499">
        <ele>51</ele>
        <time>2022-07-13T18:23:20Z</time>
      </trkpt>
      <trkpt lat="49.39476" lon="2.26504">
        <ele>50</ele>
        <time>2022-07-13T18:23:46Z</time>
      </trkpt>
      <trkpt lat="49.39468" lon="2.26516">
        <ele>50</ele>
        <time>2022-07-13T18:24:01Z</time>
      </trkpt>
      <trkpt lat="49.39455" lon="2.26525">
        <ele>50</ele>
        <time>2022-07-13T18:24:20Z</time>
      </trkpt>
      <trkpt lat="49.39452" lon="2.26532">
        <ele>50</ele>
        <time>2022-07-13T18:24:27Z</time>
      </trkpt>
      <trkpt lat="49.39445" lon="2.2654">
        <ele>50</ele>
        <time>2022-07-13T18:24:39Z</time>
      </trkpt>
      <trkpt lat="49.39434" lon="2.26544">
        <ele>50</ele>
        <time>2022-07-13T18:24:54Z</time>
      </trkpt>
      <trkpt lat="49.39424" lon="2.26543">
        <ele>49</ele>
        <time>2022-07-13T18:25:08Z</time>
      </trkpt>
      <trkpt lat="49.39378" lon="2.26551">
        <ele>49</ele>
        <time>2022-07-13T18:26:09Z</time>
      </trkpt>
      <trkpt lat="49.39369" lon="2.26555">
        <ele>49</ele>
        <time>2022-07-13T18:26:22Z</time>
      </trkpt>
      <trkpt lat="49.39348" lon="2.26582">
        <ele>48</ele>
        <time>2022-07-13T18:26:58Z</time>
      </trkpt>
      <trkpt lat="49.39343" lon="2.26593">
        <ele>48</ele>
        <time>2022-07-13T18:27:10Z</time>
      </trkpt>
      <trkpt lat="49.39338" lon="2.26613">
        <ele>49</ele>
        <time>2022-07-13T18:27:29Z</time>
      </trkpt>
      <trkpt lat="49.39333" lon="2.26616">
        <ele>49</ele>
        <time>2022-07-13T18:27:36Z</time>
      </trkpt>
      <trkpt lat="49.39315" lon="2.26616">
        <ele>49</ele>
        <time>2022-07-13T18:28:00Z</time>
      </trkpt>
      <trkpt lat="49.39305" lon="2.26623">
        <ele>50</ele>
        <time>2022-07-13T18:28:14Z</time>
      </trkpt>
      <trkpt lat="49.39289" lon="2.26641">
        <ele>50</ele>
        <time>2022-07-13T18:28:41Z</time>
      </trkpt>
      <trkpt lat="49.39274" lon="2.26648">
        <ele>50</ele>
        <time>2022-07-13T18:29:02Z</time>
      </trkpt>
      <trkpt lat="49.39272" lon="2.26653">
        <ele>50</ele>
        <time>2022-07-13T18:29:07Z</time>
      </trkpt>
      <trkpt lat="49.39266" lon="2.26672">
        <ele>49</ele>
        <time>2022-07-13T18:29:25Z</time>
      </trkpt>
      <trkpt lat="49.3924" lon="2.26697">
        <ele>49</ele>
        <time>2022-07-13T18:30:06Z</time>
      </trkpt>
      <trkpt lat="49.39233" lon="2.26708">
        <ele>49</ele>
        <time>2022-07-13T18:30:20Z</time>
      </trkpt>
      <trkpt lat="49.39234" lon="2.26721">
        <ele>49</ele>
        <time>2022-07-13T18:30:31Z</time>
      </trkpt>
      <trkpt lat="49.3924" lon="2.26738">
        <ele>49</ele>
        <time>2022-07-13T18:30:48Z</time>
      </trkpt>
      <trkpt lat="49.39239" lon="2.26747">
        <ele>49</ele>
        <time>2022-07-13T18:30:56Z</time>
      </trkpt>
      <trkpt lat="49.39236" lon="2.26753">
        <ele>49</ele>
        <time>2022-07-13T18:31:02Z</time>
      </trkpt>
      <trkpt lat="49.39226" lon="2.26762">
        <ele>49</ele>
        <time>2022-07-13T18:31:18Z</time>
      </trkpt>
      <trkpt lat="49.3922" lon="2.26746">
        <ele>48</ele>
        <time>2022-07-13T18:31:34Z</time>
      </trkpt>
      <trkpt lat="49.39311" lon="2.26959">
        <ele>55</ele>
        <time>2022-07-13T18:35:15Z</time>
      </trkpt>
      <trkpt lat="49.38766" lon="2.27497">
        <ele>57</ele>
        <time>2022-07-13T18:49:40Z</time>
      </trkpt>
      <trkpt lat="49.38733" lon="2.27466">
        <ele>59</ele>
        <time>2022-07-13T18:50:31Z</time>
      </trkpt>
      <trkpt lat="49.38703" lon="2.27451">
        <ele>61</ele>
        <time>2022-07-13T18:51:13Z</time>
      </trkpt>
      <trkpt lat="49.38701" lon="2.27465">
        <ele>63</ele>
        <time>2022-07-13T18:51:26Z</time>
      </trkpt>
      <trkpt lat="49.38511" lon="2.28637">
        <ele>79</ele>
        <time>2022-07-13T19:08:55Z</time>
      </trkpt>
      <trkpt lat="49.3851" lon="2.28642">
        <ele>79</ele>
        <time>2022-07-13T19:08:59Z</time>
      </trkpt>
      <trkpt lat="49.38511" lon="2.28637">
        <ele>79</ele>
        <time>2022-07-13T19:09:04Z</time>
      </trkpt>
      <trkpt lat="49.3836" lon="2.28379">
        <ele>84</ele>
        <time>2022-07-13T19:14:05Z</time>
      </trkpt>
      <trkpt lat="49.38316" lon="2.28292">
        <ele>87</ele>
        <time>2022-07-13T19:15:41Z</time>
      </trkpt>
      <trkpt lat="49.38314" lon="2.28276">
        <ele>88</ele>
        <time>2022-07-13T19:15:55Z</time>
      </trkpt>
      <trkpt lat="49.38315" lon="2.28246">
        <ele>88</ele>
        <time>2022-07-13T19:16:21Z</time>
      </trkpt>
      <trkpt lat="49.38314" lon="2.28177">
        <ele>87</ele>
        <time>2022-07-13T19:17:21Z</time>
      </trkpt>
      <trkpt lat="49.38308" lon="2.28148">
        <ele>87</ele>
        <time>2022-07-13T19:17:48Z</time>
      </trkpt>
      <trkpt lat="49.383" lon="2.28117">
        <ele>87</ele>
        <time>2022-07-13T19:18:17Z</time>
      </trkpt>
      <trkpt lat="49.38279" lon="2.28066">
        <ele>89</ele>
        <time>2022-07-13T19:19:09Z</time>
      </trkpt>
      <trkpt lat="49.38272" lon="2.28042">
        <ele>89</ele>
        <time>2022-07-13T19:19:32Z</time>
      </trkpt>
      <trkpt lat="49.38259" lon="2.27962">
        <ele>89</ele>
        <time>2022-07-13T19:20:44Z</time>
      </trkpt>
      <trkpt lat="49.38244" lon="2.27915">
        <ele>92</ele>
        <time>2022-07-13T19:21:29Z</time>
      </trkpt>
      <trkpt lat="49.38226" lon="2.27883">
        <ele>93</ele>
        <time>2022-07-13T19:22:06Z</time>
      </trkpt>
      <trkpt lat="49.38175" lon="2.27816">
        <ele>97</ele>
        <time>2022-07-13T19:23:35Z</time>
      </trkpt>
      <trkpt lat="49.3815" lon="2.2776">
        <ele>94</ele>
        <time>2022-07-13T19:24:34Z</time>
      </trkpt>
      <trkpt lat="49.38138" lon="2.27705">
        <ele>93</ele>
        <time>2022-07-13T19:25:25Z</time>
      </trkpt>
      <trkpt lat="49.38138" lon="2.27691">
        <ele>93</ele>
        <time>2022-07-13T19:25:37Z</time>
      </trkpt>
      <trkpt lat="49.38142" lon="2.2767">
        <ele>91</ele>
        <time>2022-07-13T19:25:56Z</time>
      </trkpt>
      <trkpt lat="49.38156" lon="2.2763">
        <ele>89</ele>
        <time>2022-07-13T19:26:35Z</time>
      </trkpt>
      <trkpt lat="49.38157" lon="2.27602">
        <ele>89</ele>
        <time>2022-07-13T19:27:00Z</time>
      </trkpt>
      <trkpt lat="49.38155" lon="2.27574">
        <ele>89</ele>
        <time>2022-07-13T19:27:24Z</time>
      </trkpt>
      <trkpt lat="49.38149" lon="2.27538">
        <ele>88</ele>
        <time>2022-07-13T19:27:57Z</time>
      </trkpt>
      <trkpt lat="49.3814" lon="2.27504">
        <ele>89</ele>
        <time>2022-07-13T19:28:28Z</time>
      </trkpt>
      <trkpt lat="49.38134" lon="2.27486">
        <ele>89</ele>
        <time>2022-07-13T19:28:46Z</time>
      </trkpt>
      <trkpt lat="49.38125" lon="2.2747">
        <ele>89</ele>
        <time>2022-07-13T19:29:04Z</time>
      </trkpt>
      <trkpt lat="49.3811" lon="2.27449">
        <ele>89</ele>
        <time>2022-07-13T19:29:31Z</time>
      </trkpt>
      <trkpt lat="49.38074" lon="2.27406">
        <ele>89</ele>
        <time>2022-07-13T19:30:32Z</time>
      </trkpt>
      <trkpt lat="49.38056" lon="2.27381">
        <ele>88</ele>
        <time>2022-07-13T19:31:05Z</time>
      </trkpt>
      <trkpt lat="49.38047" lon="2.27362">
        <ele>88</ele>
        <time>2022-07-13T19:31:25Z</time>
      </trkpt>
      <trkpt lat="49.38042" lon="2.27345">
        <ele>88</ele>
        <time>2022-07-13T19:31:41Z</time>
      </trkpt>
      <trkpt lat="49.38034" lon="2.2725">
        <ele>89</ele>
        <time>2022-07-13T19:33:04Z</time>
      </trkpt>
      <trkpt lat="49.38016" lon="2.27174">
        <ele>89</ele>
        <time>2022-07-13T19:34:15Z</time>
      </trkpt>
      <trkpt lat="49.37988" lon="2.27084">
        <ele>88</ele>
        <time>2022-07-13T19:35:41Z</time>
      </trkpt>
      <trkpt lat="49.37978" lon="2.27057">
        <ele>87</ele>
        <time>2022-07-13T19:36:08Z</time>
      </trkpt>
      <trkpt lat="49.37957" lon="2.27019">
        <ele>87</ele>
        <time>2022-07-13T19:36:52Z</time>
      </trkpt>
      <trkpt lat="49.37907" lon="2.26946">
        <ele>87</ele>
        <time>2022-07-13T19:38:24Z</time>
      </trkpt>
      <trkpt lat="49.37899" lon="2.26926">
        <ele>87</ele>
        <time>2022-07-13T19:38:44Z</time>
      </trkpt>
      <trkpt lat="49.37882" lon="2.26899">
        <ele>86</ele>
        <time>2022-07-13T19:39:17Z</time>
      </trkpt>
      <trkpt lat="49.37874" lon="2.26878">
        <ele>86</ele>
        <time>2022-07-13T19:39:38Z</time>
      </trkpt>
      <trkpt lat="49.37872" lon="2.26871">
        <ele>85</ele>
        <time>2022-07-13T19:39:45Z</time>
      </trkpt>
    </trkseg>
  </trk>
</gpx>